sensor_id;sensor_type;location;lat;lon;timestamp;temperature;humidity
27741;DHT22;15134;48.768;9.184;2024-02-23T00:01:51;8.30;99.90
27741;DHT22;15134;48.768;9.184;2024-02-23T00:04:17;8.20;99.90
27741;DHT22;15134;48.768;9.184;2024-02-23T00:06:45;8.10;99.90
27741;DHT22;15134;48.768;9.184;2024-02-23T00:09:10;8.10;99.90
27741;DHT22;15134;48.768;9.184;2024-02-23T00:11:39;8.10;99.90
27741;DHT22;15134;48.768;9.184;2024-02-23T00:14:07;8.00;99.90
27741;DHT22;15134;48.768;9.184;2024-02-23T00:16:40;8.00;99.90
27741;DHT22;15134;48.768;9.184;2024-02-23T00:19:09;8.00;99.90
27741;DHT22;15134;48.768;9.184;2024-02-23T00:21:38;8.00;99.90
27741;DHT22;15134;48.768;9.184;2024-02-23T00:24:06;8.10;99.90
27741;DHT22;15134;48.768;9.184;2024-02-23T00:26:32;8.00;99.90
27741;DHT22;15134;48.768;9.184;2024-02-23T00:28:58;8.00;99.90
27741;DHT22;15134;48.768;9.184;2024-02-23T00:31:23;8.00;99.90
27741;DHT22;15134;48.768;9.184;2024-02-23T00:33:49;7.90;99.90
27741;DHT22;15134;48.768;9.184;2024-02-23T00:36:15;7.90;99.90
27741;DHT22;15134;48.768;9.184;2024-02-23T00:38:40;7.90;99.90
27741;DHT22;15134;48.768;9.184;2024-02-23T00:41:06;7.90;99.90
27741;DHT22;15134;48.768;9.184;2024-02-23T00:43:41;8.00;99.90
27741;DHT22;15134;48.768;9.184;2024-02-23T00:46:08;8.00;99.90
27741;DHT22;15134;48.768;9.184;2024-02-23T00:48:34;7.90;99.90
27741;DHT22;15134;48.768;9.184;2024-02-23T00:51:02;8.00;99.90
27741;DHT22;15134;48.768;9.184;2024-02-23T00:53:30;8.00;99.90
27741;DHT22;15134;48.768;9.184;2024-02-23T00:55:56;7.90;99.90
27741;DHT22;15134;48.768;9.184;2024-02-23T00:58:21;7.90;99.90
27741;DHT22;15134;48.768;9.184;2024-02-23T01:00:47;7.90;99.90
27741;DHT22;15134;48.768;9.184;2024-02-23T01:03:13;7.90;99.90
27741;DHT22;15134;48.768;9.184;2024-02-23T01:05:39;7.90;99.90
27741;DHT22;15134;48.768;9.184;2024-02-23T01:08:05;7.90;99.90
27741;DHT22;15134;48.768;9.184;2024-02-23T01:10:31;7.90;99.90
27741;DHT22;15134;48.768;9.184;2024-02-23T01:12:56;7.90;99.90
27741;DHT22;15134;48.768;9.184;2024-02-23T01:15:23;8.00;99.90
27741;DHT22;15134;48.768;9.184;2024-02-23T01:17:48;8.00;99.90
27741;DHT22;15134;48.768;9.184;2024-02-23T01:20:14;8.00;99.90
27741;DHT22;15134;48.768;9.184;2024-02-23T01:22:40;8.00;99.90
27741;DHT22;15134;48.768;9.184;2024-02-23T01:25:06;7.90;99.90
27741;DHT22;15134;48.768;9.184;2024-02-23T01:27:31;7.80;99.90
27741;DHT22;15134;48.768;9.184;2024-02-23T01:29:57;7.90;99.90
27741;DHT22;15134;48.768;9.184;2024-02-23T01:32:23;7.90;99.90
27741;DHT22;15134;48.768;9.184;2024-02-23T01:34:49;7.90;99.90
27741;DHT22;15134;48.768;9.184;2024-02-23T01:37:16;7.90;99.90
27741;DHT22;15134;48.768;9.184;2024-02-23T01:39:42;8.00;99.90
27741;DHT22;15134;48.768;9.184;2024-02-23T01:42:08;7.90;99.90
27741;DHT22;15134;48.768;9.184;2024-02-23T01:44:34;7.90;99.90
27741;DHT22;15134;48.768;9.184;2024-02-23T01:47:00;7.90;99.90
27741;DHT22;15134;48.768;9.184;2024-02-23T01:49:26;7.90;99.90
27741;DHT22;15134;48.768;9.184;2024-02-23T01:51:57;7.90;99.90
27741;DHT22;15134;48.768;9.184;2024-02-23T01:54:24;8.00;99.90
27741;DHT22;15134;48.768;9.184;2024-02-23T01:56:51;8.00;99.90
27741;DHT22;15134;48.768;9.184;2024-02-23T01:59:17;8.00;99.90
27741;DHT22;15134;48.768;9.184;2024-02-23T02:01:43;8.00;99.90
27741;DHT22;15134;48.768;9.184;2024-02-23T02:04:10;8.00;99.90
27741;DHT22;15134;48.768;9.184;2024-02-23T02:06:36;8.00;99.90
27741;DHT22;15134;48.768;9.184;2024-02-23T02:09:02;7.90;99.90
27741;DHT22;15134;48.768;9.184;2024-02-23T02:11:28;7.90;99.90
27741;DHT22;15134;48.768;9.184;2024-02-23T02:13:53;7.90;99.90
27741;DHT22;15134;48.768;9.184;2024-02-23T02:16:19;7.90;99.90
27741;DHT22;15134;48.768;9.184;2024-02-23T02:18:45;7.90;99.90
27741;DHT22;15134;48.768;9.184;2024-02-23T02:21:11;7.90;99.90
27741;DHT22;15134;48.768;9.184;2024-02-23T02:23:37;7.90;99.90
27741;DHT22;15134;48.768;9.184;2024-02-23T02:26:03;7.80;99.90
27741;DHT22;15134;48.768;9.184;2024-02-23T02:28:29;7.80;99.90
27741;DHT22;15134;48.768;9.184;2024-02-23T02:30:55;7.80;99.90
27741;DHT22;15134;48.768;9.184;2024-02-23T02:33:22;7.90;99.90
27741;DHT22;15134;48.768;9.184;2024-02-23T02:35:48;7.80;99.90
27741;DHT22;15134;48.768;9.184;2024-02-23T02:38:15;7.80;99.90
27741;DHT22;15134;48.768;9.184;2024-02-23T02:40:41;7.80;99.90
27741;DHT22;15134;48.768;9.184;2024-02-23T02:43:07;7.80;99.90
27741;DHT22;15134;48.768;9.184;2024-02-23T02:45:33;7.80;99.90
27741;DHT22;15134;48.768;9.184;2024-02-23T02:48:03;7.80;99.90
27741;DHT22;15134;48.768;9.184;2024-02-23T02:50:29;7.70;99.90
27741;DHT22;15134;48.768;9.184;2024-02-23T02:52:55;7.70;99.90
27741;DHT22;15134;48.768;9.184;2024-02-23T02:55:20;7.60;99.90
27741;DHT22;15134;48.768;9.184;2024-02-23T02:57:46;7.60;99.90
27741;DHT22;15134;48.768;9.184;2024-02-23T03:00:12;7.60;99.90
27741;DHT22;15134;48.768;9.184;2024-02-23T03:02:38;7.50;99.90
27741;DHT22;15134;48.768;9.184;2024-02-23T03:05:04;7.50;99.90
27741;DHT22;15134;48.768;9.184;2024-02-23T03:07:30;7.40;99.90
27741;DHT22;15134;48.768;9.184;2024-02-23T03:09:56;7.50;99.90
27741;DHT22;15134;48.768;9.184;2024-02-23T03:12:22;7.50;99.90
27741;DHT22;15134;48.768;9.184;2024-02-23T03:14:47;7.50;99.90
27741;DHT22;15134;48.768;9.184;2024-02-23T03:17:13;7.40;99.90
27741;DHT22;15134;48.768;9.184;2024-02-23T03:19:39;7.40;99.90
27741;DHT22;15134;48.768;9.184;2024-02-23T03:22:05;7.40;99.90
27741;DHT22;15134;48.768;9.184;2024-02-23T03:24:31;7.40;99.90
27741;DHT22;15134;48.768;9.184;2024-02-23T03:26:57;7.30;99.90
27741;DHT22;15134;48.768;9.184;2024-02-23T03:29:23;7.40;99.90
27741;DHT22;15134;48.768;9.184;2024-02-23T03:31:55;7.40;99.90
27741;DHT22;15134;48.768;9.184;2024-02-23T03:34:21;7.40;99.90
27741;DHT22;15134;48.768;9.184;2024-02-23T03:36:47;7.40;99.90
27741;DHT22;15134;48.768;9.184;2024-02-23T03:39:13;7.50;99.90
27741;DHT22;15134;48.768;9.184;2024-02-23T03:41:39;7.50;99.90
27741;DHT22;15134;48.768;9.184;2024-02-23T03:44:05;7.50;99.90
27741;DHT22;15134;48.768;9.184;2024-02-23T03:46:33;7.50;99.90
27741;DHT22;15134;48.768;9.184;2024-02-23T03:49:00;7.50;99.90
27741;DHT22;15134;48.768;9.184;2024-02-23T03:51:25;7.50;99.90
27741;DHT22;15134;48.768;9.184;2024-02-23T03:53:51;7.50;99.90
27741;DHT22;15134;48.768;9.184;2024-02-23T03:56:20;7.40;99.90
27741;DHT22;15134;48.768;9.184;2024-02-23T03:58:46;7.40;99.90
27741;DHT22;15134;48.768;9.184;2024-02-23T04:01:11;7.50;99.90
27741;DHT22;15134;48.768;9.184;2024-02-23T04:03:37;7.60;99.90
27741;DHT22;15134;48.768;9.184;2024-02-23T04:06:03;7.60;99.90
27741;DHT22;15134;48.768;9.184;2024-02-23T04:08:29;7.60;99.90
27741;DHT22;15134;48.768;9.184;2024-02-23T04:10:55;7.60;99.90
27741;DHT22;15134;48.768;9.184;2024-02-23T04:13:21;7.60;99.90
27741;DHT22;15134;48.768;9.184;2024-02-23T04:15:47;7.50;99.90
27741;DHT22;15134;48.768;9.184;2024-02-23T04:18:12;7.50;99.90
27741;DHT22;15134;48.768;9.184;2024-02-23T04:20:38;7.50;99.90
27741;DHT22;15134;48.768;9.184;2024-02-23T04:23:04;7.40;99.90
27741;DHT22;15134;48.768;9.184;2024-02-23T04:25:30;7.40;99.90
27741;DHT22;15134;48.768;9.184;2024-02-23T04:27:55;7.40;99.90
27741;DHT22;15134;48.768;9.184;2024-02-23T04:30:21;7.30;99.90
27741;DHT22;15134;48.768;9.184;2024-02-23T04:32:47;7.30;99.90
27741;DHT22;15134;48.768;9.184;2024-02-23T04:35:13;7.30;99.90
27741;DHT22;15134;48.768;9.184;2024-02-23T04:37:38;7.30;99.90
27741;DHT22;15134;48.768;9.184;2024-02-23T04:40:05;7.30;99.90
27741;DHT22;15134;48.768;9.184;2024-02-23T04:42:33;7.20;99.90
27741;DHT22;15134;48.768;9.184;2024-02-23T04:44:59;7.30;99.90
27741;DHT22;15134;48.768;9.184;2024-02-23T04:47:25;7.40;99.90
27741;DHT22;15134;48.768;9.184;2024-02-23T04:49:51;7.40;99.90
27741;DHT22;15134;48.768;9.184;2024-02-23T04:52:16;7.40;99.90
27741;DHT22;15134;48.768;9.184;2024-02-23T04:54:42;7.40;99.90
27741;DHT22;15134;48.768;9.184;2024-02-23T04:57:08;7.30;99.90
27741;DHT22;15134;48.768;9.184;2024-02-23T04:59:34;7.40;99.90
27741;DHT22;15134;48.768;9.184;2024-02-23T05:02:00;7.30;99.90
27741;DHT22;15134;48.768;9.184;2024-02-23T05:04:25;7.30;99.90
27741;DHT22;15134;48.768;9.184;2024-02-23T05:06:52;7.30;99.90
27741;DHT22;15134;48.768;9.184;2024-02-23T05:09:18;7.40;99.90
27741;DHT22;15134;48.768;9.184;2024-02-23T05:11:43;7.40;99.90
27741;DHT22;15134;48.768;9.184;2024-02-23T05:14:11;7.40;99.90
27741;DHT22;15134;48.768;9.184;2024-02-23T05:16:37;7.40;99.90
27741;DHT22;15134;48.768;9.184;2024-02-23T05:19:02;7.40;99.90
27741;DHT22;15134;48.768;9.184;2024-02-23T05:21:28;7.40;99.90
27741;DHT22;15134;48.768;9.184;2024-02-23T05:23:54;7.40;99.90
27741;DHT22;15134;48.768;9.184;2024-02-23T05:26:20;7.40;99.90
27741;DHT22;15134;48.768;9.184;2024-02-23T05:28:45;7.40;99.90
27741;DHT22;15134;48.768;9.184;2024-02-23T05:31:11;7.40;99.90
27741;DHT22;15134;48.768;9.184;2024-02-23T05:33:37;7.40;99.90
27741;DHT22;15134;48.768;9.184;2024-02-23T05:36:04;7.30;99.90
27741;DHT22;15134;48.768;9.184;2024-02-23T05:38:30;7.30;99.90
27741;DHT22;15134;48.768;9.184;2024-02-23T05:40:56;7.30;99.90
27741;DHT22;15134;48.768;9.184;2024-02-23T05:43:22;7.30;99.90
27741;DHT22;15134;48.768;9.184;2024-02-23T05:45:48;7.20;99.90
27741;DHT22;15134;48.768;9.184;2024-02-23T05:48:13;7.20;99.90
27741;DHT22;15134;48.768;9.184;2024-02-23T05:50:39;7.20;99.90
27741;DHT22;15134;48.768;9.184;2024-02-23T05:53:05;7.10;99.90
27741;DHT22;15134;48.768;9.184;2024-02-23T05:55:31;7.20;99.90
27741;DHT22;15134;48.768;9.184;2024-02-23T05:57:56;7.10;99.90
27741;DHT22;15134;48.768;9.184;2024-02-23T06:00:22;7.10;99.90
27741;DHT22;15134;48.768;9.184;2024-02-23T06:02:48;7.00;99.90
27741;DHT22;15134;48.768;9.184;2024-02-23T06:05:14;7.00;99.90
27741;DHT22;15134;48.768;9.184;2024-02-23T06:07:41;7.00;99.90
27741;DHT22;15134;48.768;9.184;2024-02-23T06:10:07;6.90;99.90
27741;DHT22;15134;48.768;9.184;2024-02-23T06:12:33;6.60;99.90
27741;DHT22;15134;48.768;9.184;2024-02-23T06:14:58;6.50;99.90
27741;DHT22;15134;48.768;9.184;2024-02-23T06:17:25;6.40;99.90
27741;DHT22;15134;48.768;9.184;2024-02-23T06:19:50;6.30;99.90
27741;DHT22;15134;48.768;9.184;2024-02-23T06:22:18;6.20;99.90
27741;DHT22;15134;48.768;9.184;2024-02-23T06:24:49;6.10;99.90
27741;DHT22;15134;48.768;9.184;2024-02-23T06:27:15;6.10;99.90
27741;DHT22;15134;48.768;9.184;2024-02-23T06:29:41;6.10;99.90
27741;DHT22;15134;48.768;9.184;2024-02-23T06:32:06;6.20;99.90
27741;DHT22;15134;48.768;9.184;2024-02-23T06:34:33;6.30;99.90
27741;DHT22;15134;48.768;9.184;2024-02-23T06:36:59;6.30;99.90
27741;DHT22;15134;48.768;9.184;2024-02-23T06:39:25;6.10;99.90
27741;DHT22;15134;48.768;9.184;2024-02-23T06:41:51;6.10;99.90
27741;DHT22;15134;48.768;9.184;2024-02-23T06:44:17;6.00;99.90
27741;DHT22;15134;48.768;9.184;2024-02-23T06:46:43;6.10;99.90
27741;DHT22;15134;48.768;9.184;2024-02-23T06:49:09;6.20;99.90
27741;DHT22;15134;48.768;9.184;2024-02-23T06:51:35;6.20;99.90
27741;DHT22;15134;48.768;9.184;2024-02-23T06:54:01;6.30;99.90
27741;DHT22;15134;48.768;9.184;2024-02-23T06:56:29;6.40;99.90
27741;DHT22;15134;48.768;9.184;2024-02-23T06:58:55;6.50;99.90
27741;DHT22;15134;48.768;9.184;2024-02-23T07:03:47;6.50;99.90
27741;DHT22;15134;48.768;9.184;2024-02-23T07:06:16;6.60;99.90
27741;DHT22;15134;48.768;9.184;2024-02-23T07:08:44;6.60;99.90
27741;DHT22;15134;48.768;9.184;2024-02-23T07:11:10;6.70;99.90
27741;DHT22;15134;48.768;9.184;2024-02-23T07:13:36;6.80;99.90
27741;DHT22;15134;48.768;9.184;2024-02-23T07:16:02;6.80;99.90
27741;DHT22;15134;48.768;9.184;2024-02-23T07:18:27;6.80;99.90
27741;DHT22;15134;48.768;9.184;2024-02-23T07:20:53;6.80;99.90
27741;DHT22;15134;48.768;9.184;2024-02-23T07:23:19;6.80;99.90
27741;DHT22;15134;48.768;9.184;2024-02-23T07:25:45;6.80;99.90
27741;DHT22;15134;48.768;9.184;2024-02-23T07:28:10;6.90;99.90
27741;DHT22;15134;48.768;9.184;2024-02-23T07:30:38;6.90;99.90
27741;DHT22;15134;48.768;9.184;2024-02-23T07:33:05;6.90;99.90
27741;DHT22;15134;48.768;9.184;2024-02-23T07:35:31;6.90;99.90
27741;DHT22;15134;48.768;9.184;2024-02-23T07:37:56;7.00;99.90
27741;DHT22;15134;48.768;9.184;2024-02-23T07:40:23;7.20;99.90
27741;DHT22;15134;48.768;9.184;2024-02-23T07:42:48;7.20;99.90
27741;DHT22;15134;48.768;9.184;2024-02-23T07:45:14;7.30;99.90
27741;DHT22;15134;48.768;9.184;2024-02-23T07:47:40;7.50;99.90
27741;DHT22;15134;48.768;9.184;2024-02-23T07:50:06;7.60;99.90
27741;DHT22;15134;48.768;9.184;2024-02-23T07:52:32;7.70;99.90
27741;DHT22;15134;48.768;9.184;2024-02-23T07:54:58;7.70;99.90
27741;DHT22;15134;48.768;9.184;2024-02-23T07:57:25;7.70;99.90
27741;DHT22;15134;48.768;9.184;2024-02-23T07:59:51;7.70;99.90
27741;DHT22;15134;48.768;9.184;2024-02-23T08:02:16;7.70;99.90
27741;DHT22;15134;48.768;9.184;2024-02-23T08:04:42;7.70;99.90
27741;DHT22;15134;48.768;9.184;2024-02-23T08:07:08;7.70;99.90
27741;DHT22;15134;48.768;9.184;2024-02-23T08:09:34;7.70;99.90
27741;DHT22;15134;48.768;9.184;2024-02-23T08:12:00;7.60;99.90
27741;DHT22;15134;48.768;9.184;2024-02-23T08:14:25;7.50;99.90
27741;DHT22;15134;48.768;9.184;2024-02-23T08:16:51;7.60;99.90
27741;DHT22;15134;48.768;9.184;2024-02-23T08:19:17;7.60;99.90
27741;DHT22;15134;48.768;9.184;2024-02-23T08:21:42;7.60;99.90
27741;DHT22;15134;48.768;9.184;2024-02-23T08:24:09;7.70;99.90
27741;DHT22;15134;48.768;9.184;2024-02-23T08:26:35;7.70;99.90
27741;DHT22;15134;48.768;9.184;2024-02-23T08:29:03;7.70;99.90
27741;DHT22;15134;48.768;9.184;2024-02-23T08:31:30;7.70;99.90
27741;DHT22;15134;48.768;9.184;2024-02-23T08:33:56;7.80;99.90
27741;DHT22;15134;48.768;9.184;2024-02-23T08:36:21;7.80;99.90
27741;DHT22;15134;48.768;9.184;2024-02-23T08:38:47;7.80;99.90
27741;DHT22;15134;48.768;9.184;2024-02-23T08:41:13;7.90;99.90
27741;DHT22;15134;48.768;9.184;2024-02-23T08:43:38;7.90;99.90
27741;DHT22;15134;48.768;9.184;2024-02-23T08:46:05;8.00;99.90
27741;DHT22;15134;48.768;9.184;2024-02-23T08:48:30;8.00;99.90
27741;DHT22;15134;48.768;9.184;2024-02-23T08:50:56;8.00;99.90
27741;DHT22;15134;48.768;9.184;2024-02-23T08:53:22;8.10;99.90
27741;DHT22;15134;48.768;9.184;2024-02-23T08:55:47;7.90;99.90
27741;DHT22;15134;48.768;9.184;2024-02-23T08:58:13;7.90;99.90
27741;DHT22;15134;48.768;9.184;2024-02-23T09:00:39;7.80;99.90
27741;DHT22;15134;48.768;9.184;2024-02-23T09:03:04;7.80;99.90
27741;DHT22;15134;48.768;9.184;2024-02-23T09:05:30;7.70;99.90
27741;DHT22;15134;48.768;9.184;2024-02-23T09:07:56;7.70;99.90
27741;DHT22;15134;48.768;9.184;2024-02-23T09:10:22;7.80;99.90
27741;DHT22;15134;48.768;9.184;2024-02-23T09:12:47;7.80;99.90
27741;DHT22;15134;48.768;9.184;2024-02-23T09:15:13;7.70;99.90
27741;DHT22;15134;48.768;9.184;2024-02-23T09:17:42;7.70;99.90
27741;DHT22;15134;48.768;9.184;2024-02-23T09:20:08;7.80;99.90
27741;DHT22;15134;48.768;9.184;2024-02-23T09:22:34;7.80;99.90
27741;DHT22;15134;48.768;9.184;2024-02-23T09:24:59;7.80;99.90
27741;DHT22;15134;48.768;9.184;2024-02-23T09:27:28;7.80;99.90
27741;DHT22;15134;48.768;9.184;2024-02-23T09:29:54;7.90;99.90
27741;DHT22;15134;48.768;9.184;2024-02-23T09:32:19;8.00;99.90
27741;DHT22;15134;48.768;9.184;2024-02-23T09:34:45;8.00;99.90
27741;DHT22;15134;48.768;9.184;2024-02-23T09:37:11;8.00;99.90
27741;DHT22;15134;48.768;9.184;2024-02-23T09:39:37;8.00;99.90
27741;DHT22;15134;48.768;9.184;2024-02-23T09:42:02;8.10;99.90
27741;DHT22;15134;48.768;9.184;2024-02-23T09:44:32;8.20;99.90
27741;DHT22;15134;48.768;9.184;2024-02-23T09:47:02;8.30;99.90
27741;DHT22;15134;48.768;9.184;2024-02-23T09:49:39;8.50;99.90
27741;DHT22;15134;48.768;9.184;2024-02-23T09:52:09;8.60;99.90
27741;DHT22;15134;48.768;9.184;2024-02-23T09:54:37;8.70;99.90
27741;DHT22;15134;48.768;9.184;2024-02-23T09:57:07;8.80;99.90
27741;DHT22;15134;48.768;9.184;2024-02-23T09:59:34;8.90;99.90
27741;DHT22;15134;48.768;9.184;2024-02-23T10:02:01;9.00;99.90
27741;DHT22;15134;48.768;9.184;2024-02-23T10:04:29;9.10;99.90
27741;DHT22;15134;48.768;9.184;2024-02-23T10:06:56;9.30;99.90
27741;DHT22;15134;48.768;9.184;2024-02-23T10:09:22;9.60;99.90
27741;DHT22;15134;48.768;9.184;2024-02-23T10:11:54;9.60;99.90
27741;DHT22;15134;48.768;9.184;2024-02-23T10:14:20;9.60;99.90
27741;DHT22;15134;48.768;9.184;2024-02-23T10:16:47;9.50;99.90
27741;DHT22;15134;48.768;9.184;2024-02-23T10:19:12;9.40;99.90
27741;DHT22;15134;48.768;9.184;2024-02-23T10:21:38;9.20;99.90
27741;DHT22;15134;48.768;9.184;2024-02-23T10:24:05;9.20;99.90
27741;DHT22;15134;48.768;9.184;2024-02-23T10:26:31;9.10;99.90
27741;DHT22;15134;48.768;9.184;2024-02-23T10:28:57;9.10;99.90
27741;DHT22;15134;48.768;9.184;2024-02-23T10:31:24;9.10;99.90
27741;DHT22;15134;48.768;9.184;2024-02-23T10:33:50;9.10;99.90
27741;DHT22;15134;48.768;9.184;2024-02-23T10:36:18;9.10;99.90
27741;DHT22;15134;48.768;9.184;2024-02-23T10:38:48;9.10;99.90
27741;DHT22;15134;48.768;9.184;2024-02-23T10:41:17;9.00;99.90
27741;DHT22;15134;48.768;9.184;2024-02-23T10:43:47;9.10;99.90
27741;DHT22;15134;48.768;9.184;2024-02-23T10:46:14;9.10;99.90
27741;DHT22;15134;48.768;9.184;2024-02-23T10:48:44;9.20;99.90
27741;DHT22;15134;48.768;9.184;2024-02-23T10:51:14;9.20;99.90
27741;DHT22;15134;48.768;9.184;2024-02-23T10:53:40;9.30;99.90
27741;DHT22;15134;48.768;9.184;2024-02-23T10:56:07;9.20;99.90
27741;DHT22;15134;48.768;9.184;2024-02-23T10:58:33;9.20;99.90
27741;DHT22;15134;48.768;9.184;2024-02-23T11:01:01;9.10;99.90
27741;DHT22;15134;48.768;9.184;2024-02-23T11:03:33;9.20;99.90
27741;DHT22;15134;48.768;9.184;2024-02-23T11:06:01;9.20;99.90
27741;DHT22;15134;48.768;9.184;2024-02-23T11:08:30;9.30;99.90
27741;DHT22;15134;48.768;9.184;2024-02-23T11:11:09;9.30;99.90
27741;DHT22;15134;48.768;9.184;2024-02-23T11:13:36;9.30;99.90
27741;DHT22;15134;48.768;9.184;2024-02-23T11:16:06;9.40;99.90
27741;DHT22;15134;48.768;9.184;2024-02-23T11:18:34;9.50;99.90
27741;DHT22;15134;48.768;9.184;2024-02-23T11:21:02;9.60;99.90
27741;DHT22;15134;48.768;9.184;2024-02-23T11:23:44;9.60;99.90
27741;DHT22;15134;48.768;9.184;2024-02-23T11:26:10;9.50;99.90
27741;DHT22;15134;48.768;9.184;2024-02-23T11:28:50;9.60;99.90
27741;DHT22;15134;48.768;9.184;2024-02-23T11:31:25;9.50;99.90
27741;DHT22;15134;48.768;9.184;2024-02-23T11:33:52;9.30;99.90
27741;DHT22;15134;48.768;9.184;2024-02-23T11:36:28;9.10;99.90
27741;DHT22;15134;48.768;9.184;2024-02-23T11:38:56;9.20;99.90
27741;DHT22;15134;48.768;9.184;2024-02-23T11:41:23;9.30;99.90
27741;DHT22;15134;48.768;9.184;2024-02-23T11:43:53;9.40;99.90
27741;DHT22;15134;48.768;9.184;2024-02-23T11:46:19;9.50;99.90
27741;DHT22;15134;48.768;9.184;2024-02-23T11:48:45;9.50;99.90
27741;DHT22;15134;48.768;9.184;2024-02-23T11:51:15;9.40;99.90
27741;DHT22;15134;48.768;9.184;2024-02-23T11:53:41;9.40;99.90
27741;DHT22;15134;48.768;9.184;2024-02-23T11:56:07;9.50;99.90
27741;DHT22;15134;48.768;9.184;2024-02-23T11:58:34;9.50;99.90
27741;DHT22;15134;48.768;9.184;2024-02-23T12:01:00;9.50;99.90
27741;DHT22;15134;48.768;9.184;2024-02-23T12:03:29;9.50;99.90
27741;DHT22;15134;48.768;9.184;2024-02-23T12:06:00;9.50;99.90
27741;DHT22;15134;48.768;9.184;2024-02-23T12:08:26;9.60;99.90
27741;DHT22;15134;48.768;9.184;2024-02-23T12:10:56;9.50;99.90
27741;DHT22;15134;48.768;9.184;2024-02-23T12:13:23;9.50;99.90
27741;DHT22;15134;48.768;9.184;2024-02-23T12:15:52;9.50;99.90
27741;DHT22;15134;48.768;9.184;2024-02-23T12:18:21;9.60;99.90
27741;DHT22;15134;48.768;9.184;2024-02-23T12:20:49;9.70;99.90
27741;DHT22;15134;48.768;9.184;2024-02-23T12:23:15;9.80;99.90
27741;DHT22;15134;48.768;9.184;2024-02-23T12:25:52;9.90;99.90
27741;DHT22;15134;48.768;9.184;2024-02-23T12:28:19;9.90;99.90
27741;DHT22;15134;48.768;9.184;2024-02-23T12:30:45;9.90;99.90
27741;DHT22;15134;48.768;9.184;2024-02-23T12:33:15;9.80;99.90
27741;DHT22;15134;48.768;9.184;2024-02-23T12:35:41;9.90;99.90
27741;DHT22;15134;48.768;9.184;2024-02-23T12:38:07;9.90;99.90
27741;DHT22;15134;48.768;9.184;2024-02-23T12:40:33;10.00;99.90
27741;DHT22;15134;48.768;9.184;2024-02-23T12:42:59;10.00;99.90
27741;DHT22;15134;48.768;9.184;2024-02-23T12:45:24;10.10;99.90
27741;DHT22;15134;48.768;9.184;2024-02-23T12:47:50;10.10;99.90
27741;DHT22;15134;48.768;9.184;2024-02-23T12:50:16;10.00;99.90
27741;DHT22;15134;48.768;9.184;2024-02-23T12:52:42;9.90;99.90
27741;DHT22;15134;48.768;9.184;2024-02-23T12:55:08;9.80;99.90
27741;DHT22;15134;48.768;9.184;2024-02-23T12:57:37;9.70;99.90
27741;DHT22;15134;48.768;9.184;2024-02-23T13:00:03;9.60;99.90
27741;DHT22;15134;48.768;9.184;2024-02-23T13:02:28;9.60;99.90
27741;DHT22;15134;48.768;9.184;2024-02-23T13:04:54;9.50;99.90
27741;DHT22;15134;48.768;9.184;2024-02-23T13:07:20;9.40;99.90
27741;DHT22;15134;48.768;9.184;2024-02-23T13:09:45;9.40;99.90
27741;DHT22;15134;48.768;9.184;2024-02-23T13:12:11;9.40;99.90
27741;DHT22;15134;48.768;9.184;2024-02-23T13:14:37;9.40;99.90
27741;DHT22;15134;48.768;9.184;2024-02-23T13:17:03;9.50;99.90
27741;DHT22;15134;48.768;9.184;2024-02-23T13:19:29;9.60;99.90
27741;DHT22;15134;48.768;9.184;2024-02-23T13:21:55;9.70;99.90
27741;DHT22;15134;48.768;9.184;2024-02-23T13:24:20;9.80;99.90
27741;DHT22;15134;48.768;9.184;2024-02-23T13:26:46;9.70;99.90
27741;DHT22;15134;48.768;9.184;2024-02-23T13:29:12;9.80;99.90
27741;DHT22;15134;48.768;9.184;2024-02-23T13:31:37;9.80;99.90
27741;DHT22;15134;48.768;9.184;2024-02-23T13:34:05;9.70;99.90
27741;DHT22;15134;48.768;9.184;2024-02-23T13:36:31;9.70;99.90
27741;DHT22;15134;48.768;9.184;2024-02-23T13:38:56;9.70;99.90
27741;DHT22;15134;48.768;9.184;2024-02-23T13:41:22;9.70;99.90
27741;DHT22;15134;48.768;9.184;2024-02-23T13:43:48;9.60;99.90
27741;DHT22;15134;48.768;9.184;2024-02-23T13:46:14;9.70;99.90
27741;DHT22;15134;48.768;9.184;2024-02-23T13:48:39;9.70;99.90
27741;DHT22;15134;48.768;9.184;2024-02-23T13:51:06;9.70;99.90
27741;DHT22;15134;48.768;9.184;2024-02-23T13:53:32;9.70;99.90
27741;DHT22;15134;48.768;9.184;2024-02-23T13:55:58;9.80;99.90
27741;DHT22;15134;48.768;9.184;2024-02-23T13:58:29;9.80;99.90
27741;DHT22;15134;48.768;9.184;2024-02-23T14:01:02;9.90;99.90
27741;DHT22;15134;48.768;9.184;2024-02-23T14:03:28;9.80;99.90
27741;DHT22;15134;48.768;9.184;2024-02-23T14:05:55;9.80;99.90
27741;DHT22;15134;48.768;9.184;2024-02-23T14:08:21;9.80;99.90
27741;DHT22;15134;48.768;9.184;2024-02-23T14:10:46;9.80;99.90
27741;DHT22;15134;48.768;9.184;2024-02-23T14:13:12;9.70;99.90
27741;DHT22;15134;48.768;9.184;2024-02-23T14:15:38;9.80;99.90
27741;DHT22;15134;48.768;9.184;2024-02-23T14:18:04;9.70;99.90
27741;DHT22;15134;48.768;9.184;2024-02-23T14:20:30;9.70;99.90
27741;DHT22;15134;48.768;9.184;2024-02-23T14:22:55;9.70;99.90
27741;DHT22;15134;48.768;9.184;2024-02-23T14:25:21;9.70;99.90
27741;DHT22;15134;48.768;9.184;2024-02-23T14:27:47;9.70;99.90
27741;DHT22;15134;48.768;9.184;2024-02-23T14:30:13;9.60;99.90
27741;DHT22;15134;48.768;9.184;2024-02-23T14:32:39;9.60;99.90
27741;DHT22;15134;48.768;9.184;2024-02-23T14:35:07;9.60;99.90
27741;DHT22;15134;48.768;9.184;2024-02-23T14:37:35;9.60;99.90
27741;DHT22;15134;48.768;9.184;2024-02-23T14:40:01;9.60;99.90
27741;DHT22;15134;48.768;9.184;2024-02-23T14:42:26;9.60;99.90
27741;DHT22;15134;48.768;9.184;2024-02-23T14:44:52;9.60;99.90
27741;DHT22;15134;48.768;9.184;2024-02-23T14:47:18;9.60;99.90
27741;DHT22;15134;48.768;9.184;2024-02-23T14:49:43;9.70;99.90
27741;DHT22;15134;48.768;9.184;2024-02-23T14:52:09;9.80;99.90
27741;DHT22;15134;48.768;9.184;2024-02-23T14:54:35;9.80;99.90
27741;DHT22;15134;48.768;9.184;2024-02-23T14:57:01;9.70;99.90
27741;DHT22;15134;48.768;9.184;2024-02-23T14:59:27;9.70;99.90
27741;DHT22;15134;48.768;9.184;2024-02-23T15:01:52;9.70;99.90
27741;DHT22;15134;48.768;9.184;2024-02-23T15:04:18;9.70;99.90
27741;DHT22;15134;48.768;9.184;2024-02-23T15:06:44;9.70;99.90
27741;DHT22;15134;48.768;9.184;2024-02-23T15:12:05;9.70;99.90
27741;DHT22;15134;48.768;9.184;2024-02-23T15:14:31;9.60;99.90
27741;DHT22;15134;48.768;9.184;2024-02-23T15:16:57;9.60;99.90
27741;DHT22;15134;48.768;9.184;2024-02-23T15:19:23;9.60;99.90
27741;DHT22;15134;48.768;9.184;2024-02-23T15:21:49;9.60;99.90
27741;DHT22;15134;48.768;9.184;2024-02-23T15:24:18;9.60;99.90
27741;DHT22;15134;48.768;9.184;2024-02-23T15:26:46;9.60;99.90
27741;DHT22;15134;48.768;9.184;2024-02-23T15:29:12;9.50;99.90
27741;DHT22;15134;48.768;9.184;2024-02-23T15:31:38;9.50;99.90
27741;DHT22;15134;48.768;9.184;2024-02-23T15:34:05;9.40;99.90
27741;DHT22;15134;48.768;9.184;2024-02-23T15:36:31;9.30;99.90
27741;DHT22;15134;48.768;9.184;2024-02-23T15:38:57;9.30;99.90
27741;DHT22;15134;48.768;9.184;2024-02-23T15:41:29;9.40;99.90
27741;DHT22;15134;48.768;9.184;2024-02-23T15:43:55;9.40;99.90
27741;DHT22;15134;48.768;9.184;2024-02-23T15:46:21;9.40;99.90